Time;durP1;ratioP1;P1;durP2;ratioP2;P2;SDS_P1;SDS_P2;PMS_P1;PMS_P2;Temp;Humidity;BMP_temperature;BMP_pressure;BME280_temperature;BME280_humidity;BME280_pressure;Samples;Min_cycle;Max_cycle;Signal;HPM_P1;HPM_P2
2021/12/17 00:01:13;;;;;;;20.92;15.10;;;3.10;84.60;;;-151.14;100.00;62537.16;3907037;35;20031;-83
2021/12/17 00:03:47;;;;;;;21.83;14.82;;;3.10;84.60;;;-151.14;100.00;62537.16;3890930;35;20031;-84
2021/12/17 00:08:51;;;;;;;21.48;14.70;;;3.10;84.60;;;-151.14;100.00;62537.16;3967520;35;20000;-83
2021/12/17 00:11:18;;;;;;;21.58;14.50;;;3.10;84.60;;;-151.14;100.00;62537.16;3887549;35;20287;-85
2021/12/17 00:13:46;;;;;;;22.65;14.75;;;3.10;84.60;;;-151.14;100.00;62537.16;3926765;35;20261;-85
2021/12/17 00:16:21;;;;;;;23.00;14.65;;;3.10;84.60;;;-151.14;100.00;62537.16;3886599;35;19992;-86
2021/12/17 00:19:14;;;;;;;22.02;14.25;;;3.10;84.60;;;-151.14;100.00;62537.16;3948056;35;19991;-85
2021/12/17 00:48:58;;;;;;;14.55;10.73;;;3.10;84.50;;;-151.14;100.00;62537.16;3922249;36;20009;-84
2021/12/17 00:54:22;;;;;;;15.68;10.70;;;3.10;84.60;;;-151.14;100.00;62537.16;3907684;35;19996;-82
2021/12/17 00:56:53;;;;;;;15.75;11.00;;;3.10;84.60;;;-151.14;100.00;62537.16;3864058;36;20044;-83
2021/12/17 00:59:20;;;;;;;14.38;10.10;;;3.00;84.50;;;-151.14;100.00;62537.16;3883450;35;20232;-83
2021/12/17 01:01:47;;;;;;;15.18;10.52;;;3.10;84.60;;;-151.14;100.00;62537.16;3886105;35;20547;-83
2021/12/17 01:04:14;;;;;;;13.70;9.68;;;3.10;84.70;;;-151.14;100.00;62537.16;3905268;35;20034;-84
2021/12/17 01:06:41;;;;;;;15.02;9.55;;;3.10;84.60;;;-151.14;100.00;62537.16;3946537;35;20004;-83
2021/12/17 01:09:08;;;;;;;15.25;10.57;;;3.10;84.70;;;-151.14;100.00;62537.16;3906375;35;20320;-84
2021/12/17 01:11:35;;;;;;;15.35;10.05;;;3.10;84.60;;;-151.14;100.00;62537.16;3946660;35;20265;-84
2021/12/17 01:14:30;;;;;;;14.20;9.82;;;3.10;84.60;;;-151.14;100.00;62537.16;3895350;35;20019;-84
2021/12/17 01:16:57;;;;;;;14.13;10.15;;;3.10;84.60;;;-151.14;100.00;62537.16;3906021;35;20015;-84
2021/12/17 01:25:34;;;;;;;11.82;8.73;;;3.10;84.70;;;-151.14;100.00;62537.16;3893891;35;20030;-83
2021/12/17 01:40:58;;;;;;;12.25;8.13;;;3.00;84.60;;;-151.14;100.00;62537.16;3903859;36;20084;-84
2021/12/17 01:43:22;;;;;;;14.20;8.95;;;3.10;84.70;;;-151.14;100.00;62537.16;3893195;36;20265;-83
2021/12/17 01:45:48;;;;;;;12.20;8.52;;;3.10;84.70;;;-151.14;100.00;62537.16;3921678;36;20176;-84
2021/12/17 01:48:19;;;;;;;11.75;7.93;;;3.10;84.60;;;-151.14;100.00;62537.16;3921936;36;20173;-83
2021/12/17 01:59:26;;;;;;;11.10;8.05;;;3.10;84.70;;;-151.14;100.00;62537.16;3904993;36;20080;-84
2021/12/17 02:02:01;;;;;;;14.65;8.77;;;3.10;84.80;;;-151.14;100.00;62537.16;3901908;36;20060;-84
2021/12/17 02:04:29;;;;;;;12.10;7.95;;;3.00;84.60;;;-151.14;100.00;62537.16;3882095;36;20421;-83
2021/12/17 02:06:56;;;;;;;12.52;7.95;;;3.10;84.70;;;-151.14;100.00;62537.16;3893915;36;20217;-83
2021/12/17 02:32:07;;;;;;;9.48;6.57;;;3.10;84.60;;;-151.14;100.00;62537.16;3920951;36;20036;-84
2021/12/17 02:37:18;;;;;;;8.90;6.20;;;3.00;84.50;;;-151.14;100.00;62537.16;3896794;35;19996;-85
2021/12/17 02:45:33;;;;;;;8.60;5.85;;;3.00;84.60;;;-151.14;100.00;62537.16;3890074;35;20000;-83
2021/12/17 02:48:05;;;;;;;8.35;5.95;;;3.10;84.60;;;-151.14;100.00;62537.16;3907190;35;20271;-83
2021/12/17 02:50:34;;;;;;;11.25;6.80;;;3.10;84.60;;;-151.14;100.00;62537.16;3949726;35;20173;-84
2021/12/17 02:53:02;;;;;;;8.88;5.82;;;3.00;84.50;;;-151.14;100.00;62537.16;3909775;35;19995;-84
2021/12/17 02:55:30;;;;;;;10.63;6.22;;;3.00;84.40;;;-151.14;100.00;62537.16;3949496;35;19999;-84
2021/12/17 02:57:57;;;;;;;8.23;5.60;;;3.10;84.70;;;-151.14;100.00;62537.16;3929406;35;20240;-84
2021/12/17 03:00:23;;;;;;;8.95;5.78;;;3.10;84.60;;;-151.14;100.00;62537.16;3889905;35;20154;-84
2021/12/17 03:02:49;;;;;;;8.45;5.88;;;3.10;84.70;;;-151.14;100.00;62537.16;3889540;35;19999;-84
2021/12/17 03:05:16;;;;;;;8.05;5.68;;;3.00;84.50;;;-151.14;100.00;62537.16;3865855;35;20233;-84
2021/12/17 03:07:45;;;;;;;9.07;5.22;;;3.10;84.70;;;-151.14;100.00;62537.16;3905421;35;20205;-84
2021/12/17 03:10:14;;;;;;;9.02;5.60;;;3.10;84.70;;;-151.14;100.00;62537.16;3886674;35;20167;-84
2021/12/17 03:12:55;;;;;;;9.32;5.43;;;3.10;85.50;;;-151.14;100.00;62537.16;3925541;35;19992;-84
2021/12/17 03:25:52;;;;;;;7.20;4.72;;;3.00;84.60;;;-151.14;100.00;62537.16;3889414;35;20034;-84
2021/12/17 03:28:21;;;;;;;7.57;5.60;;;3.10;84.60;;;-151.14;100.00;62537.16;3887740;35;20071;-84
2021/12/17 03:30:47;;;;;;;8.40;5.30;;;3.00;84.40;;;-151.14;100.00;62537.16;3907898;35;20004;-84
2021/12/17 03:33:14;;;;;;;8.65;5.32;;;3.00;84.50;;;-151.14;100.00;62537.16;3874082;36;20232;-84
2021/12/17 03:35:40;;;;;;;7.32;4.97;;;3.00;85.40;;;-151.14;100.00;62537.16;3863272;36;20113;-84
2021/12/17 03:38:07;;;;;;;8.15;5.35;;;3.00;84.50;;;-151.14;100.00;62537.16;3923260;36;20085;-84
2021/12/17 03:40:34;;;;;;;6.15;4.55;;;3.00;84.60;;;-151.14;100.00;62537.16;3882490;36;20019;-84
2021/12/17 03:43:11;;;;;;;7.60;4.50;;;3.00;84.60;;;-151.14;100.00;62537.16;3882402;36;20390;-84
2021/12/17 03:45:40;;;;;;;7.70;4.93;;;3.00;84.60;;;-151.14;100.00;62537.16;3921386;36;20350;-84
2021/12/17 03:48:11;;;;;;;6.57;4.22;;;3.00;84.60;;;-151.14;100.00;62537.16;3865968;36;20048;-84
2021/12/17 03:50:38;;;;;;;7.28;4.72;;;3.00;84.50;;;-151.14;100.00;62537.16;3883200;36;20066;-83
2021/12/17 03:53:06;;;;;;;7.00;4.15;;;3.00;84.60;;;-151.14;100.00;62537.16;3902918;36;20236;-84
2021/12/17 03:55:34;;;;;;;6.00;4.05;;;3.00;84.40;;;-151.14;100.00;62537.16;3863592;36;20020;-84
2021/12/17 03:58:03;;;;;;;5.72;4.20;;;3.00;84.40;;;-151.14;100.00;62537.16;3922375;36;19995;-84
2021/12/17 04:00:33;;;;;;;5.60;3.65;;;3.00;84.40;;;-151.14;100.00;62537.16;3922865;36;20025;-84
2021/12/17 04:03:03;;;;;;;7.05;4.22;;;3.00;84.50;;;-151.14;100.00;62537.16;3883224;36;20004;-84
2021/12/17 04:05:38;;;;;;;;;;;3.00;84.40;;;-151.14;100.00;62537.16;3866540;36;19993;-84
2021/12/17 04:08:24;;;;;;;5.85;3.85;;;3.00;84.50;;;-151.14;100.00;62537.16;3902466;36;20129;-84
2021/12/17 04:11:19;;;;;;;6.22;4.47;;;3.00;84.50;;;-151.14;100.00;62537.16;3910488;35;20102;-85
2021/12/17 04:13:55;;;;;;;5.53;3.70;;;3.00;84.40;;;-151.14;100.00;62537.16;3922451;36;20174;-85
2021/12/17 04:16:26;;;;;;;5.60;3.88;;;3.00;84.40;;;-151.14;100.00;62537.16;3922717;35;20063;-85
2021/12/17 04:18:53;;;;;;;5.18;4.13;;;3.00;84.50;;;-151.14;100.00;62537.16;3904217;36;20295;-84
2021/12/17 04:21:21;;;;;;;6.70;4.25;;;3.00;84.50;;;-151.14;100.00;62537.16;3883040;36;20048;-85
2021/12/17 04:23:50;;;;;;;4.78;3.25;;;3.00;84.30;;;-151.14;100.00;62537.16;3903005;36;19996;-85
2021/12/17 04:26:17;;;;;;;5.20;3.70;;;3.00;84.40;;;-151.14;100.00;62537.16;3882503;36;20000;-85
2021/12/17 04:28:48;;;;;;;5.70;4.05;;;3.00;84.40;;;-151.14;100.00;62537.16;3902468;36;20072;-85
2021/12/17 04:31:19;;;;;;;5.47;3.70;;;3.00;84.40;;;-151.14;100.00;62537.16;3883929;36;20165;-84
2021/12/17 04:33:46;;;;;;;6.57;3.55;;;3.00;84.50;;;-151.14;100.00;62537.16;3864391;36;19997;-84
2021/12/17 04:36:20;;;;;;;5.50;3.50;;;3.00;84.40;;;-151.14;100.00;62537.16;3882209;36;20185;-85
2021/12/17 04:38:46;;;;;;;5.07;3.40;;;3.00;84.60;;;-151.14;100.00;62537.16;3918552;35;20122;-85
2021/12/17 04:46:40;;;;;;;5.05;3.40;;;3.00;84.50;;;-151.14;100.00;62537.16;3946787;35;20076;-85
2021/12/17 04:57:31;;;;;;;6.05;4.10;;;3.00;84.50;;;-151.14;100.00;62537.16;3929730;35;20065;-84
2021/12/17 05:00:06;;;;;;;5.38;3.30;;;3.00;84.40;;;-151.14;100.00;62537.16;3889393;35;20180;-85
2021/12/17 05:02:41;;;;;;;4.82;3.40;;;3.00;84.50;;;-151.14;100.00;62537.16;3949588;35;19999;-85
2021/12/17 05:05:09;;;;;;;4.45;2.90;;;3.00;84.40;;;-151.14;100.00;62537.16;3932114;35;20158;-85
2021/12/17 05:07:47;;;;;;;4.85;3.35;;;3.00;84.40;;;-151.14;100.00;62537.16;3926370;35;20188;-85
2021/12/17 05:10:41;;;;;;;4.13;3.03;;;3.00;84.60;;;-151.14;100.00;62537.16;3912237;35;20253;-85
2021/12/17 05:18:33;;;;;;;4.30;2.88;;;3.00;84.50;;;-151.14;100.00;62537.16;3904898;36;19999;-84
2021/12/17 05:21:05;;;;;;;4.53;2.92;;;3.00;84.50;;;-151.14;100.00;62537.16;3902481;36;20352;-84
2021/12/17 05:23:45;;;;;;;4.57;2.88;;;3.00;84.50;;;-151.14;100.00;62537.16;3907848;35;20247;-85
2021/12/17 05:26:16;;;;;;;4.72;2.88;;;3.00;84.40;;;-151.14;100.00;62537.16;3906385;35;20399;-85
2021/12/17 05:28:46;;;;;;;5.70;3.35;;;3.00;84.50;;;-151.14;100.00;62537.16;3906301;35;20001;-84
2021/12/17 05:31:15;;;;;;;3.63;2.42;;;3.00;84.40;;;-151.14;100.00;62537.16;3905980;35;20279;-84
2021/12/17 05:33:47;;;;;;;4.53;3.42;;;3.00;84.40;;;-151.14;100.00;62537.16;3913931;35;20277;-84
2021/12/17 05:36:15;;;;;;;3.47;2.65;;;3.00;84.50;;;-151.14;100.00;62537.16;3890360;35;20189;-85
2021/12/17 05:38:53;;;;;;;3.55;2.65;;;3.00;84.50;;;-151.14;100.00;62537.16;3898597;35;19992;-82
2021/12/17 05:41:19;;;;;;;5.45;3.40;;;3.00;84.50;;;-151.14;100.00;62537.16;3946130;35;20110;-83
2021/12/17 05:44:24;;;;;;;4.72;3.00;;;3.00;84.40;;;-151.14;100.00;62537.16;3909156;35;20079;-83
2021/12/17 05:46:52;;;;;;;4.40;3.08;;;3.00;84.40;;;-151.14;100.00;62537.16;3886338;35;20076;-83
2021/12/17 05:49:25;;;;;;;4.07;2.80;;;3.00;84.60;;;-151.14;100.00;62537.16;3894582;35;20000;-84
2021/12/17 05:51:53;;;;;;;4.40;3.15;;;3.00;84.50;;;-151.14;100.00;62537.16;3890981;35;20012;-84
2021/12/17 05:54:19;;;;;;;3.78;2.65;;;3.00;84.50;;;-151.14;100.00;62537.16;3928516;35;19996;-83
2021/12/17 05:56:46;;;;;;;4.90;3.00;;;3.00;84.50;;;-151.14;100.00;62537.16;3929098;35;19994;-83
2021/12/17 05:59:13;;;;;;;3.42;2.50;;;3.00;84.50;;;-151.14;100.00;62537.16;3950397;35;20072;-83
2021/12/17 06:01:39;;;;;;;5.00;3.15;;;3.00;84.50;;;-151.14;100.00;62537.16;3910144;35;20440;-82
2021/12/17 06:04:06;;;;;;;4.35;3.00;;;3.00;84.50;;;-151.14;100.00;62537.16;3950364;35;20257;-83
2021/12/17 06:06:47;;;;;;;4.13;2.78;;;3.00;85.40;;;-151.14;100.00;62537.16;3921596;36;20367;-83
2021/12/17 06:09:14;;;;;;;4.50;2.97;;;3.00;84.40;;;-151.14;100.00;62537.16;3901862;36;20012;-84
2021/12/17 06:11:41;;;;;;;4.53;3.05;;;3.00;84.40;;;-151.14;100.00;62537.16;3924869;35;19997;-83
2021/12/17 06:14:10;;;;;;;4.55;2.97;;;3.00;84.40;;;-151.14;100.00;62537.16;3918563;35;19995;-83
2021/12/17 06:16:38;;;;;;;4.43;2.88;;;3.00;84.40;;;-151.14;100.00;62537.16;3910159;35;19992;-83
2021/12/17 06:19:09;;;;;;;4.85;3.17;;;3.00;84.40;;;-151.14;100.00;62537.16;3971087;35;20014;-83
2021/12/17 06:21:37;;;;;;;5.10;2.95;;;3.00;84.40;;;-151.14;100.00;62537.16;3910101;35;19995;-83
2021/12/17 06:24:03;;;;;;;4.32;2.88;;;3.00;84.40;;;-151.14;100.00;62537.16;3929817;35;20092;-83
2021/12/17 06:26:30;;;;;;;5.15;3.60;;;3.00;84.40;;;-151.14;100.00;62537.16;3929711;35;20323;-83
2021/12/17 06:28:56;;;;;;;4.10;2.90;;;3.00;84.40;;;-151.14;100.00;62537.16;3929649;35;20076;-83
2021/12/17 06:31:25;;;;;;;5.38;3.45;;;3.00;84.40;;;-151.14;100.00;62537.16;3942712;35;20002;-83
2021/12/17 06:33:52;;;;;;;4.53;2.75;;;3.00;85.20;;;-151.14;100.00;62537.16;3930234;35;20013;-82
2021/12/17 06:36:18;;;;;;;4.78;3.10;;;3.00;84.40;;;-151.14;100.00;62537.16;3929404;35;20095;-83
2021/12/17 06:38:45;;;;;;;4.70;2.97;;;3.00;84.40;;;-151.14;100.00;62537.16;3909912;35;20303;-83
2021/12/17 06:41:13;;;;;;;5.53;3.60;;;3.00;84.40;;;-151.14;100.00;62537.16;3890270;35;20162;-84
2021/12/17 06:43:42;;;;;;;4.22;3.10;;;3.00;84.40;;;-151.14;100.00;62537.16;3971001;35;19990;-83
2021/12/17 06:48:42;;;;;;;5.90;3.55;;;3.00;84.40;;;-151.14;100.00;62537.16;3945814;35;20308;-84
2021/12/17 07:22:31;;;;;;;6.13;4.15;;;3.00;84.30;;;-151.14;100.00;62537.16;3932143;35;20126;-83
2021/12/17 07:33:34;;;;;;;6.25;3.88;;;3.00;84.40;;;-151.14;100.00;62537.16;3908544;36;20027;-83
2021/12/17 07:36:23;;;;;;;5.78;3.42;;;3.00;84.30;;;-151.14;100.00;62537.16;3878576;36;19993;-84
2021/12/17 07:38:55;;;;;;;6.40;4.28;;;3.00;84.30;;;-151.14;100.00;62537.16;3863068;35;19999;-84
2021/12/17 07:41:37;;;;;;;7.10;4.60;;;3.00;84.30;;;-151.14;100.00;62537.16;3918752;35;20227;-83
2021/12/17 07:44:29;;;;;;;7.28;4.53;;;3.00;84.30;;;-151.14;100.00;62537.16;3921549;35;20165;-83
2021/12/17 07:47:14;;;;;;;7.93;4.97;;;3.00;84.20;;;-151.14;100.00;62537.16;3916236;35;20014;-84
2021/12/17 07:49:43;;;;;;;8.32;4.65;;;3.00;84.30;;;-151.14;100.00;62537.16;3907480;35;20231;-83
2021/12/17 07:52:10;;;;;;;7.10;4.60;;;3.00;84.20;;;-151.14;100.00;62537.16;3843923;36;20148;-84
2021/12/17 07:54:36;;;;;;;7.07;4.38;;;3.00;84.30;;;-151.14;100.00;62537.16;3931361;35;19995;-83
2021/12/17 07:57:03;;;;;;;7.65;4.95;;;3.00;84.40;;;-151.14;100.00;62537.16;3951762;35;20078;-83
2021/12/17 07:59:31;;;;;;;7.70;5.18;;;3.00;84.40;;;-151.14;100.00;62537.16;3931920;35;20152;-82
2021/12/17 08:01:57;;;;;;;6.75;5.35;;;3.00;84.30;;;-151.14;100.00;62537.16;3911060;35;20199;-83
2021/12/17 08:04:28;;;;;;;7.75;5.35;;;3.10;84.40;;;-151.14;100.00;62537.16;3932266;35;20040;-83
2021/12/17 08:06:58;;;;;;;7.63;4.80;;;3.00;84.20;;;-151.14;100.00;62537.16;3892904;35;20003;-83
2021/12/17 08:09:28;;;;;;;8.05;5.10;;;3.10;84.40;;;-151.14;100.00;62537.16;3931741;35;20153;-83
2021/12/17 08:11:57;;;;;;;8.90;5.35;;;3.00;84.30;;;-151.14;100.00;62537.16;3904055;35;20015;-84
2021/12/17 08:14:29;;;;;;;8.07;4.82;;;3.00;84.30;;;-151.14;100.00;62537.16;3907248;35;20008;-83
2021/12/17 08:17:48;;;;;;;9.38;6.40;;;3.00;84.30;;;-151.14;100.00;62537.16;3907220;35;20331;-83
2021/12/17 08:25:26;;;;;;;8.88;5.50;;;3.00;84.30;;;-151.14;100.00;62537.16;3933754;35;20249;-84
2021/12/17 08:28:04;;;;;;;8.43;5.53;;;3.00;84.30;;;-151.14;100.00;62537.16;3897937;35;20041;-83
2021/12/17 08:30:38;;;;;;;8.52;5.65;;;3.00;84.20;;;-151.14;100.00;62537.16;3953024;35;20132;-84
2021/12/17 08:33:12;;;;;;;8.88;5.95;;;3.00;84.20;;;-151.14;100.00;62537.16;3878457;35;20163;-83
2021/12/17 08:35:39;;;;;;;9.07;6.15;;;3.00;84.30;;;-151.14;100.00;62537.16;3930860;35;20230;-84
2021/12/17 08:38:13;;;;;;;9.07;6.25;;;3.00;84.20;;;-151.14;100.00;62537.16;3896056;35;20133;-84
2021/12/17 08:40:41;;;;;;;9.30;6.00;;;3.00;84.30;;;-151.14;100.00;62537.16;3910960;35;20300;-84
2021/12/17 08:43:07;;;;;;;9.60;6.32;;;3.00;84.20;;;-151.14;100.00;62537.16;3891191;35;20035;-83
2021/12/17 08:45:42;;;;;;;7.97;5.43;;;3.00;84.20;;;-151.14;100.00;62537.16;3913426;35;20044;-84
2021/12/17 08:48:27;;;;;;;8.05;5.57;;;3.00;84.30;;;-151.14;100.00;62537.16;3936226;35;20294;-84
2021/12/17 08:51:13;;;;;;;9.85;6.38;;;3.00;84.30;;;-151.14;100.00;62537.16;3920620;35;20163;-85
2021/12/17 08:53:40;;;;;;;9.15;6.55;;;3.00;84.30;;;-151.14;100.00;62537.16;3887804;35;20339;-83
2021/12/17 08:56:07;;;;;;;9.85;6.53;;;3.00;84.20;;;-151.14;100.00;62537.16;3925934;35;20004;-83
2021/12/17 08:58:34;;;;;;;9.48;6.40;;;3.00;84.30;;;-151.14;100.00;62537.16;3877363;35;20138;-84
2021/12/17 09:01:05;;;;;;;12.32;7.43;;;3.00;84.30;;;-151.14;100.00;62537.16;3887453;35;20012;-84
2021/12/17 09:03:33;;;;;;;9.35;6.43;;;3.00;84.30;;;-151.14;100.00;62537.16;3907964;35;20000;-84
2021/12/17 09:06:26;;;;;;;9.32;6.43;;;3.00;84.20;;;-151.14;100.00;62537.16;3904225;35;20020;-84
2021/12/17 09:08:54;;;;;;;11.27;7.05;;;3.00;84.20;;;-151.14;100.00;62537.16;3908366;35;20331;-83
2021/12/17 09:11:27;;;;;;;9.02;6.82;;;3.00;84.30;;;-151.14;100.00;62537.16;3906841;35;20502;-83
2021/12/17 09:14:01;;;;;;;10.77;6.85;;;3.00;84.30;;;-151.14;100.00;62537.16;3907549;35;20121;-84
2021/12/17 09:16:37;;;;;;;9.82;7.05;;;3.00;84.20;;;-151.14;100.00;62537.16;3910007;35;20154;-84
2021/12/17 09:19:04;;;;;;;9.65;6.78;;;3.00;84.20;;;-151.14;100.00;62537.16;3906516;35;19988;-84
2021/12/17 09:21:43;;;;;;;11.13;7.55;;;3.00;84.20;;;-151.14;100.00;62537.16;3931024;35;20037;-84
2021/12/17 09:24:15;;;;;;;10.73;7.13;;;3.00;84.20;;;-151.14;100.00;62537.16;3887135;35;19992;-86
2021/12/17 09:27:00;;;;;;;10.73;6.93;;;3.00;84.30;;;-151.14;100.00;62537.16;3929269;35;19996;-83
2021/12/17 09:29:34;;;;;;;9.35;6.43;;;3.00;84.30;;;-151.14;100.00;62537.16;3890501;35;20169;-82
2021/12/17 09:32:00;;;;;;;9.98;6.55;;;3.00;84.20;;;-151.14;100.00;62537.16;3906160;35;20102;-83
2021/12/17 09:34:27;;;;;;;12.45;7.40;;;3.00;84.20;;;-151.14;100.00;62537.16;3894581;36;20056;-84
2021/12/17 09:36:53;;;;;;;12.00;7.85;;;3.00;84.30;;;-151.14;100.00;62537.16;3957841;35;20062;-83
2021/12/17 09:39:19;;;;;;;11.95;7.47;;;3.00;84.20;;;-151.14;100.00;62537.16;3930421;35;19999;-84
2021/12/17 09:41:50;;;;;;;11.45;7.65;;;3.00;84.20;;;-151.14;100.00;62537.16;3930558;35;20069;-83
2021/12/17 09:44:18;;;;;;;10.95;7.60;;;3.00;84.30;;;-151.14;100.00;62537.16;3910708;35;20130;-84
2021/12/17 09:46:46;;;;;;;11.23;7.40;;;3.00;84.30;;;-151.14;100.00;62537.16;3979589;35;20152;-84
2021/12/17 09:49:13;;;;;;;9.68;6.65;;;3.00;84.30;;;-151.14;100.00;62537.16;4003362;35;20282;-83
2021/12/17 09:51:39;;;;;;;12.02;8.15;;;3.10;84.30;;;-151.14;100.00;62537.16;3930274;35;19992;-84
2021/12/17 09:54:05;;;;;;;10.27;7.25;;;3.10;84.40;;;-151.14;100.00;62537.16;3950395;35;20439;-84
2021/12/17 09:56:32;;;;;;;10.77;7.22;;;3.10;84.30;;;-151.14;100.00;62537.16;3903502;36;20118;-83
2021/12/17 09:58:59;;;;;;;10.18;6.80;;;3.10;84.30;;;-151.14;100.00;62537.16;3901772;36;20278;-83
2021/12/17 10:01:25;;;;;;;13.00;8.00;;;3.10;84.30;;;-151.14;100.00;62537.16;3934496;35;19995;-83
2021/12/17 10:04:25;;;;;;;12.65;7.80;;;3.10;84.30;;;-151.14;100.00;62537.16;3889830;35;20035;-83
2021/12/17 10:06:52;;;;;;;10.88;6.93;;;3.00;84.10;;;-151.14;100.00;62537.16;3904688;36;20000;-83
2021/12/17 10:09:18;;;;;;;12.45;8.40;;;3.10;84.20;;;-151.14;100.00;62537.16;3918163;35;20124;-83
2021/12/17 10:12:07;;;;;;;13.00;7.97;;;3.10;84.10;;;-151.14;100.00;62537.16;3914697;35;20026;-84
2021/12/17 10:14:33;;;;;;;11.98;7.63;;;3.10;84.20;;;-151.14;100.00;62537.16;3882670;35;20254;-85
2021/12/17 10:17:13;;;;;;;13.55;8.85;;;3.10;84.10;;;-151.14;100.00;62537.16;3929972;35;19991;-84
2021/12/17 10:19:53;;;;;;;13.60;7.88;;;3.10;84.10;;;-151.14;100.00;62537.16;3950076;35;20582;-85
2021/12/17 10:22:20;;;;;;;12.48;7.75;;;3.10;84.00;;;-151.14;100.00;62537.16;3929941;35;20136;-84
2021/12/17 10:25:05;;;;;;;10.98;7.60;;;3.10;84.00;;;-151.14;100.00;62537.16;3912428;36;20032;-83
2021/12/17 10:27:42;;;;;;;12.25;8.55;;;3.10;84.00;;;-151.14;100.00;62537.16;3901947;36;20290;-84
2021/12/17 10:30:21;;;;;;;12.95;9.18;;;3.10;83.90;;;-151.14;100.00;62537.16;3910630;35;20219;-84
2021/12/17 10:32:52;;;;;;;13.98;8.57;;;3.10;83.90;;;-151.14;100.00;62537.16;3910407;35;20035;-84
2021/12/17 10:35:27;;;;;;;14.07;8.90;;;3.10;83.80;;;-151.14;100.00;62537.16;3889632;35;20027;-84
2021/12/17 10:38:08;;;;;;;15.05;9.23;;;3.20;83.80;;;-151.14;100.00;62537.16;3919789;35;20176;-84
2021/12/17 10:40:43;;;;;;;13.35;9.25;;;3.20;83.80;;;-151.14;100.00;62537.16;3922953;35;20055;-84
2021/12/17 10:46:09;;;;;;;13.05;9.32;;;3.20;83.60;;;-151.14;100.00;62537.16;3967177;35;19999;-85
2021/12/17 10:54:16;;;;;;;13.38;9.30;;;3.20;83.60;;;-151.14;100.00;62537.16;3900347;36;20094;-83
2021/12/17 10:56:49;;;;;;;13.88;8.73;;;3.20;83.50;;;-151.14;100.00;62537.16;3900892;36;20004;-84
2021/12/17 10:59:18;;;;;;;13.57;8.95;;;3.10;83.60;;;-151.14;100.00;62537.16;3901376;36;20051;-84
2021/12/17 11:02:02;;;;;;;12.52;9.30;;;3.20;83.60;;;-151.14;100.00;62537.16;3921026;36;20030;-84
2021/12/17 11:04:35;;;;;;;13.40;9.32;;;3.20;83.60;;;-151.14;100.00;62537.16;3925005;35;20157;-84
2021/12/17 11:07:04;;;;;;;15.90;9.95;;;3.20;83.60;;;-151.14;100.00;62537.16;3924599;35;20303;-83
2021/12/17 11:09:49;;;;;;;15.95;9.98;;;3.20;83.60;;;-151.14;100.00;62537.16;3945335;35;20071;-83
2021/12/17 11:12:26;;;;;;;12.82;9.60;;;3.10;83.60;;;-151.14;100.00;62537.16;3924443;35;19992;-83
2021/12/17 11:14:53;;;;;;;14.07;10.15;;;3.10;83.60;;;-151.14;100.00;62537.16;3923067;35;20238;-84
2021/12/17 11:17:23;;;;;;;17.67;10.85;;;3.20;83.60;;;-151.14;100.00;62537.16;3869512;36;20113;-84
2021/12/17 11:19:53;;;;;;;17.40;11.18;;;3.10;83.60;;;-151.14;100.00;62537.16;3905411;35;20016;-84
2021/12/17 11:22:20;;;;;;;14.88;9.68;;;3.20;83.60;;;-151.14;100.00;62537.16;3966224;35;20068;-85
2021/12/17 11:24:47;;;;;;;14.40;9.77;;;3.20;83.60;;;-151.14;100.00;62537.16;3914895;35;20266;-84
2021/12/17 11:27:13;;;;;;;16.80;9.55;;;3.20;83.60;;;-151.14;100.00;62537.16;3948302;35;20090;-84
2021/12/17 11:29:40;;;;;;;14.73;9.82;;;3.10;83.60;;;-151.14;100.00;62537.16;3953718;35;19996;-84
2021/12/17 11:32:07;;;;;;;12.88;8.95;;;3.10;83.70;;;-151.14;100.00;62537.16;3928096;35;20039;-84
2021/12/17 11:34:34;;;;;;;15.27;10.07;;;3.10;83.70;;;-151.14;100.00;62537.16;3948733;35;19996;-85
2021/12/17 11:37:03;;;;;;;16.00;10.30;;;3.10;83.70;;;-151.14;100.00;62537.16;3909539;35;19991;-85
2021/12/17 11:39:33;;;;;;;14.98;9.70;;;3.10;83.70;;;-151.14;100.00;62537.16;3909544;35;19995;-84
2021/12/17 11:43:02;;;;;;;15.73;10.80;;;3.10;83.70;;;-151.14;100.00;62537.16;3929730;35;20027;-84
2021/12/17 11:45:29;;;;;;;15.90;10.43;;;3.10;83.70;;;-151.14;100.00;62537.16;3949436;35;20480;-83
2021/12/17 11:48:21;;;;;;;15.10;10.88;;;3.10;83.80;;;-151.14;100.00;62537.16;3936960;36;20016;-83
2021/12/17 11:51:12;;;;;;;16.75;10.55;;;3.10;83.80;;;-151.14;100.00;62537.16;3896283;35;20050;-83
2021/12/17 11:53:55;;;;;;;14.77;10.57;;;3.10;83.80;;;-151.14;100.00;62537.16;3927202;35;20003;-84
2021/12/17 11:56:48;;;;;;;16.60;10.32;;;3.10;83.80;;;-151.14;100.00;62537.16;3945145;35;19996;-84
2021/12/17 11:59:27;;;;;;;13.93;9.32;;;3.10;83.80;;;-151.14;100.00;62537.16;3904550;35;20485;-84
2021/12/17 12:02:16;;;;;;;14.52;9.93;;;3.10;83.80;;;-151.14;100.00;62537.16;3947727;35;20285;-84
2021/12/17 12:05:00;;;;;;;16.60;10.77;;;3.10;83.70;;;-151.14;100.00;62537.16;3966515;35;20468;-84
2021/12/17 12:07:26;;;;;;;17.85;10.95;;;3.10;83.70;;;-151.14;100.00;62537.16;3909078;35;20016;-84
2021/12/17 12:10:11;;;;;;;16.08;10.95;;;3.10;83.80;;;-151.14;100.00;62537.16;3926803;35;20690;-85
2021/12/17 12:12:48;;;;;;;15.10;10.63;;;3.10;83.70;;;-151.14;100.00;62537.16;3992806;35;20593;-84
2021/12/17 12:15:21;;;;;;;17.83;10.80;;;3.10;83.70;;;-151.14;100.00;62537.16;3971823;35;20003;-85
2021/12/17 12:18:17;;;;;;;15.60;10.68;;;3.10;83.70;;;-151.14;100.00;62537.16;3951662;35;20268;-85
2021/12/17 12:20:51;;;;;;;15.82;10.13;;;3.10;83.80;;;-151.14;100.00;62537.16;3888747;35;20256;-84
2021/12/17 12:23:29;;;;;;;15.25;10.98;;;3.10;83.80;;;-151.14;100.00;62537.16;3947640;35;20112;-85
2021/12/17 12:26:02;;;;;;;16.98;10.90;;;3.10;83.80;;;-151.14;100.00;62537.16;3943936;35;20082;-85
2021/12/17 12:31:19;;;;;;;16.23;10.85;;;3.10;83.80;;;-151.14;100.00;62537.16;3971957;35;20765;-85
2021/12/17 12:34:07;;;;;;;16.80;11.13;;;3.10;83.90;;;-151.14;100.00;62537.16;3951262;35;19991;-84
2021/12/17 12:37:07;;;;;;;15.02;10.85;;;3.10;83.80;;;-151.14;100.00;62537.16;3951223;35;20538;-84
2021/12/17 12:40:08;;;;;;;20.23;11.45;;;3.10;83.90;;;-151.14;100.00;62537.16;3951354;35;20317;-83
2021/12/17 12:42:35;;;;;;;16.38;10.95;;;3.00;83.90;;;-151.14;100.00;62537.16;3899662;36;20072;-84
2021/12/17 12:45:09;;;;;;;17.85;12.00;;;3.00;83.90;;;-151.14;100.00;62537.16;3897805;35;20382;-84
2021/12/17 12:47:35;;;;;;;17.42;11.20;;;3.10;84.00;;;-151.14;100.00;62537.16;3951111;35;20058;-84
2021/12/17 12:50:07;;;;;;;16.27;10.77;;;3.00;84.00;;;-151.14;100.00;62537.16;3951921;35;20034;-84
2021/12/17 12:52:39;;;;;;;16.30;10.48;;;3.00;83.90;;;-151.14;100.00;62537.16;3952074;35;20041;-84
2021/12/17 12:55:07;;;;;;;16.55;10.85;;;3.10;84.00;;;-151.14;100.00;62537.16;3911229;35;19992;-85
2021/12/17 12:57:39;;;;;;;15.20;10.32;;;3.10;83.90;;;-151.14;100.00;62537.16;3971244;35;20580;-85
2021/12/17 13:00:12;;;;;;;17.83;11.63;;;3.00;83.80;;;-151.14;100.00;62537.16;3949918;35;19992;-85
2021/12/17 13:02:39;;;;;;;16.63;11.35;;;3.10;84.00;;;-151.14;100.00;62537.16;3970784;35;20007;-84
2021/12/17 13:05:07;;;;;;;17.55;11.73;;;3.00;83.90;;;-151.14;100.00;62537.16;3950737;35;19996;-84
2021/12/17 13:07:39;;;;;;;15.63;10.93;;;3.00;83.80;;;-151.14;100.00;62537.16;3873007;35;20282;-83
2021/12/17 13:10:21;;;;;;;16.33;11.20;;;3.10;84.00;;;-151.14;100.00;62537.16;3950893;35;20319;-85
2021/12/17 13:13:10;;;;;;;19.02;12.02;;;3.10;84.00;;;-151.14;100.00;62537.16;3928334;35;20020;-84
2021/12/17 13:15:44;;;;;;;15.55;11.60;;;3.10;84.00;;;-151.14;100.00;62537.16;3930419;35;19988;-84
2021/12/17 13:24:08;;;;;;;17.15;10.98;;;3.10;84.10;;;-151.14;100.00;62537.16;3892363;36;19989;-84
2021/12/17 13:26:34;;;;;;;16.60;11.15;;;3.00;84.00;;;-151.14;100.00;62537.16;3921826;36;20019;-83
2021/12/17 13:29:14;;;;;;;17.35;11.82;;;3.00;84.00;;;-151.14;100.00;62537.16;3843364;36;20102;-84
2021/12/17 13:31:53;;;;;;;17.33;10.73;;;3.00;84.00;;;-151.14;100.00;62537.16;3902573;36;20314;-84